createdAt,value
2023-05-19T00:02:27.389Z,102800.69
2023-05-19T00:04:55.537Z,102797.50
2023-05-19T00:07:28.455Z,102794.09
2023-05-19T00:09:56.272Z,102793.50
2023-05-19T00:12:24.499Z,102781.91
2023-05-19T00:14:52.300Z,102773.19
2023-05-19T00:17:20.237Z,102781.53
2023-05-19T00:19:47.914Z,102776.34
2023-05-19T00:22:15.936Z,102781.34
2023-05-19T00:24:43.531Z,102780.06
2023-05-19T00:27:11.112Z,102783.31
2023-05-19T00:29:38.681Z,102781.63
2023-05-19T00:32:06.641Z,102783.31
2023-05-19T00:34:34.233Z,102777.81
2023-05-19T00:37:01.770Z,102779.69
2023-05-19T00:39:29.300Z,102783.09
2023-05-19T00:41:56.874Z,102788.28
2023-05-19T00:44:24.398Z,102777.53
2023-05-19T00:46:52.041Z,102777.53
2023-05-19T00:49:19.600Z,102780.06
2023-05-19T00:51:47.187Z,102772.22
2023-05-19T00:54:14.717Z,102771.44
2023-05-19T00:56:42.507Z,102773.91
2023-05-19T00:59:10.092Z,102774.03
2023-05-19T01:01:38.068Z,102784.41
2023-05-19T01:04:09.867Z,102777.34
2023-05-19T01:06:38.611Z,102784.69
2023-05-19T01:09:06.179Z,102777.03
2023-05-19T01:11:33.726Z,102775.19
2023-05-19T01:14:01.655Z,102772.47
2023-05-19T01:16:59.231Z,102778.50
2023-05-19T01:19:42.169Z,102772.19
2023-05-19T01:22:33.699Z,102769.72
2023-05-19T01:25:25.304Z,102766.88
2023-05-19T01:28:01.589Z,102771.25
2023-05-19T01:30:38.600Z,102765.94
2023-05-19T01:33:09.377Z,102762.75
2023-05-19T01:35:39.903Z,102752.03
2023-05-19T01:38:11.052Z,102760.97
2023-05-19T01:40:41.509Z,102759.09
2023-05-19T01:43:11.804Z,102765.06
2023-05-19T01:45:39.697Z,102758.91
2023-05-19T01:48:10.658Z,102754.50
2023-05-19T01:50:39.322Z,102761.38
2023-05-19T01:53:06.876Z,102751.75
2023-05-19T01:55:36.869Z,102750.09
2023-05-19T01:58:14.957Z,102748.94
2023-05-19T02:00:59.480Z,102749.38
2023-05-19T02:03:29.956Z,102754.97
2023-05-19T02:06:18.844Z,102755.06
2023-05-19T02:09:03.694Z,102761.34
2023-05-19T02:11:41.153Z,102751.75
2023-05-19T02:14:34.791Z,102761.09
2023-05-19T02:17:04.446Z,102751.34
2023-05-19T02:19:39.260Z,102756.31
2023-05-19T02:22:07.461Z,102749.88
2023-05-19T02:24:35.055Z,102754.97
2023-05-19T02:27:02.691Z,102751.34
2023-05-19T02:29:30.451Z,102740.91
2023-05-19T02:31:57.953Z,102749.47
2023-05-19T02:34:25.575Z,102752.78
2023-05-19T02:36:53.134Z,102745.19
2023-05-19T02:39:20.735Z,102742.03
2023-05-19T02:41:48.263Z,102730.94
2023-05-19T02:44:15.782Z,102733.06
2023-05-19T02:46:43.400Z,102729.81
2023-05-19T02:49:11.353Z,102719.81
2023-05-19T02:51:38.890Z,102721.69
2023-05-19T02:54:06.564Z,102726.06
2023-05-19T02:56:34.153Z,102713.94
2023-05-19T02:59:01.958Z,102723.59
2023-05-19T03:01:29.519Z,102714.06
2023-05-19T03:03:57.168Z,102709.84
2023-05-19T03:06:24.703Z,102721.97
2023-05-19T03:08:52.527Z,102715.03
2023-05-19T03:11:20.104Z,102704.84
2023-05-19T03:13:47.711Z,102711.25
2023-05-19T03:16:15.306Z,102715.91
2023-05-19T03:18:42.893Z,102715.75
2023-05-19T03:21:10.700Z,102717.94
2023-05-19T03:23:38.294Z,102711.00
2023-05-19T03:26:06.199Z,102718.88
2023-05-19T03:28:33.708Z,102711.19
2023-05-19T03:31:01.262Z,102723.72
2023-05-19T03:33:29.949Z,102717.16
2023-05-19T03:35:58.274Z,102710.06
2023-05-19T03:38:26.049Z,102715.91
2023-05-19T03:40:53.655Z,102707.75
2023-05-19T03:43:21.306Z,102711.13
2023-05-19T03:45:49.036Z,102715.69
2023-05-19T03:48:18.461Z,102712.88
2023-05-19T03:50:48.590Z,102712.50
2023-05-19T03:53:16.273Z,102700.09
2023-05-19T03:55:44.448Z,102698.56
2023-05-19T03:58:14.544Z,102708.88
2023-05-19T04:00:42.097Z,102705.91
2023-05-19T04:03:09.844Z,102704.16
2023-05-19T04:05:37.539Z,102707.97
2023-05-19T04:08:05.124Z,102707.75
2023-05-19T04:10:32.898Z,102702.72
2023-05-19T04:13:00.678Z,102707.00
2023-05-19T04:15:28.410Z,102705.91
2023-05-19T04:17:56.940Z,102713.34
2023-05-19T04:20:24.539Z,102713.47
2023-05-19T04:22:52.081Z,102702.84
2023-05-19T04:25:20.424Z,102708.38
2023-05-19T04:27:48.725Z,102717.38
2023-05-19T04:30:22.060Z,102719.59
2023-05-19T04:32:50.926Z,102721.28
2023-05-19T04:35:19.448Z,102723.66
2023-05-19T04:37:47.048Z,102717.56
2023-05-19T04:40:14.615Z,102726.47
2023-05-19T04:42:42.715Z,102723.84
2023-05-19T04:45:12.340Z,102721.91
2023-05-19T04:47:40.184Z,102722.78
2023-05-19T04:50:09.327Z,102724.75
2023-05-19T04:52:37.671Z,102722.72
2023-05-19T04:55:05.488Z,102723.56
2023-05-19T04:57:33.077Z,102722.69
2023-05-19T05:00:00.761Z,102723.41
2023-05-19T05:02:28.876Z,102721.06
2023-05-19T05:04:56.703Z,102722.56
2023-05-19T05:07:24.928Z,102730.91
2023-05-19T05:09:52.781Z,102729.50
2023-05-19T05:12:20.666Z,102735.31
2023-05-19T05:14:48.636Z,102742.94
2023-05-19T05:17:16.529Z,102733.13
2023-05-19T05:19:44.375Z,102733.22
2023-05-19T05:22:12.211Z,102730.22
2023-05-19T05:24:40.057Z,102734.59
2023-05-19T05:27:08.304Z,102729.38
2023-05-19T05:29:36.629Z,102742.63
2023-05-19T05:32:04.305Z,102731.38
2023-05-19T05:34:32.059Z,102730.66
2023-05-19T05:36:59.646Z,102741.28
2023-05-19T05:39:28.003Z,102745.25
2023-05-19T05:41:55.633Z,102743.22
2023-05-19T05:44:23.208Z,102728.19
2023-05-19T05:46:51.092Z,102735.28
2023-05-19T05:49:18.934Z,102730.78
2023-05-19T05:51:57.958Z,102731.06
2023-05-19T05:54:33.320Z,102733.47
2023-05-19T05:57:02.571Z,102729.06
2023-05-19T05:59:30.210Z,102719.28
2023-05-19T06:01:57.831Z,102725.81
2023-05-19T06:04:25.848Z,102734.47
2023-05-19T06:06:54.898Z,102731.63
2023-05-19T06:09:22.480Z,102726.97
2023-05-19T06:11:49.978Z,102721.66
2023-05-19T06:14:18.629Z,102730.88
2023-05-19T06:16:48.006Z,102734.09
2023-05-19T06:19:16.123Z,102727.19
2023-05-19T06:21:44.273Z,102726.16
2023-05-19T06:24:12.512Z,102717.03
2023-05-19T06:26:40.099Z,102721.53
2023-05-19T06:29:07.658Z,102712.09
2023-05-19T06:31:35.272Z,102712.53
2023-05-19T06:34:02.918Z,102709.09
2023-05-19T06:36:30.455Z,102710.94
2023-05-19T06:38:58.580Z,102706.31
2023-05-19T06:41:27.280Z,102707.53
2023-05-19T06:43:54.919Z,102707.84
2023-05-19T06:46:22.486Z,102702.78
2023-05-19T06:48:50.087Z,102702.91
2023-05-19T06:51:21.693Z,102698.06
2023-05-19T06:53:50.068Z,102709.44
2023-05-19T06:56:18.984Z,102708.84
2023-05-19T06:58:47.081Z,102704.09
2023-05-19T07:01:14.718Z,102716.00
2023-05-19T07:03:42.392Z,102706.94
2023-05-19T07:06:10.109Z,102705.13
2023-05-19T07:08:38.212Z,102698.66
2023-05-19T07:11:05.945Z,102710.44
2023-05-19T07:13:33.569Z,102707.56
2023-05-19T07:16:01.253Z,102703.72
2023-05-19T07:18:31.798Z,102706.31
2023-05-19T07:20:59.622Z,102704.25
2023-05-19T07:23:27.237Z,102714.78
2023-05-19T07:25:56.944Z,102702.75
2023-05-19T07:28:24.779Z,102706.28
2023-05-19T07:30:53.167Z,102700.44
2023-05-19T07:33:20.772Z,102700.50
2023-05-19T07:35:48.742Z,102704.91
2023-05-19T07:38:16.369Z,102704.03
2023-05-19T07:40:43.941Z,102707.44
2023-05-19T07:43:11.731Z,102699.59
2023-05-19T07:45:39.887Z,102694.38
2023-05-19T07:48:07.950Z,102697.75
2023-05-19T07:50:35.830Z,102690.84
2023-05-19T07:53:03.490Z,102696.19
2023-05-19T07:55:31.297Z,102688.31
2023-05-19T07:57:58.910Z,102688.34
2023-05-19T08:00:26.499Z,102688.34
2023-05-19T08:02:54.170Z,102689.22
2023-05-19T08:05:21.940Z,102684.91
2023-05-19T08:07:49.652Z,102686.66
2023-05-19T08:10:17.361Z,102680.53
2023-05-19T08:12:45.089Z,102676.97
2023-05-19T08:15:13.031Z,102684.03
2023-05-19T08:17:40.795Z,102674.41
2023-05-19T08:20:10.283Z,102670.84
2023-05-19T08:22:37.992Z,102673.50
2023-05-19T08:25:06.264Z,102663.00
2023-05-19T08:27:34.246Z,102663.00
2023-05-19T08:30:01.952Z,102654.13
2023-05-19T08:32:29.509Z,102652.69
2023-05-19T08:34:57.037Z,102657.31
2023-05-19T08:37:24.592Z,102651.63
2023-05-19T08:39:52.120Z,102653.03
2023-05-19T08:42:19.679Z,102648.53
2023-05-19T08:44:47.509Z,102651.78
2023-05-19T08:47:16.211Z,102645.84
2023-05-19T08:49:49.101Z,102637.22
2023-05-19T08:52:37.439Z,102629.53
2023-05-19T08:55:11.119Z,102635.03
2023-05-19T08:57:39.560Z,102633.09
2023-05-19T09:00:09.280Z,102636.53
2023-05-19T09:02:50.341Z,102631.66
2023-05-19T09:05:27.166Z,102625.41
2023-05-19T09:07:55.114Z,102618.50
2023-05-19T09:10:22.948Z,102626.88
2023-05-19T09:12:51.467Z,102623.53
2023-05-19T09:15:20.902Z,102620.63
2023-05-19T09:17:48.697Z,102622.03
2023-05-19T09:20:17.819Z,102621.81
2023-05-19T09:22:47.493Z,102606.78
2023-05-19T09:25:24.349Z,102629.00
2023-05-19T09:27:52.129Z,102618.38
2023-05-19T09:30:20.219Z,102630.50
2023-05-19T09:32:48.211Z,102624.78
2023-05-19T09:35:17.204Z,102617.75
2023-05-19T09:37:45.126Z,102616.22
2023-05-19T09:40:15.700Z,102616.97
2023-05-19T09:42:44.148Z,102622.97
2023-05-19T09:45:11.961Z,102621.50
2023-05-19T09:47:41.121Z,102611.69
2023-05-19T09:50:10.981Z,102611.53
2023-05-19T09:52:40.899Z,102607.69
2023-05-19T09:55:14.254Z,102604.06
2023-05-19T09:57:41.882Z,102606.56
2023-05-19T10:00:15.415Z,102596.88
2023-05-19T10:02:45.310Z,102603.06
2023-05-19T10:05:17.817Z,102603.78
2023-05-19T10:07:48.483Z,102596.25
2023-05-19T10:10:16.768Z,102596.19
2023-05-19T10:12:44.713Z,102590.91
2023-05-19T10:15:14.327Z,102598.03
2023-05-19T10:17:43.068Z,102593.50
2023-05-19T10:20:14.038Z,102597.84
2023-05-19T10:22:43.265Z,102588.88
2023-05-19T10:25:13.074Z,102592.69
2023-05-19T10:27:44.541Z,102595.31
2023-05-19T10:30:16.722Z,102593.13
2023-05-19T10:32:48.582Z,102589.38
2023-05-19T10:35:45.377Z,102587.88
2023-05-19T10:38:37.329Z,102591.38
2023-05-19T10:41:13.992Z,102577.91
2023-05-19T10:44:23.725Z,102578.16
2023-05-19T10:46:52.535Z,102579.81
2023-05-19T10:49:22.689Z,102567.88
2023-05-19T10:51:50.430Z,102562.47
2023-05-19T10:54:20.929Z,102555.72
2023-05-19T10:56:48.558Z,102556.97
2023-05-19T10:59:33.196Z,102568.88
2023-05-19T11:02:08.368Z,102559.31
2023-05-19T11:04:51.762Z,102560.81
2023-05-19T11:07:21.569Z,102561.53
2023-05-19T11:09:53.394Z,102557.03
2023-05-19T11:12:24.725Z,102549.25
2023-05-19T11:14:55.948Z,102551.06
2023-05-19T11:17:26.309Z,102567.16
2023-05-19T11:19:56.210Z,102555.53
2023-05-19T11:22:26.477Z,102555.78
2023-05-19T11:24:57.557Z,102549.59
2023-05-19T11:27:28.316Z,102546.53
2023-05-19T11:29:57.405Z,102556.22
2023-05-19T11:32:31.864Z,102548.16
2023-05-19T11:34:59.513Z,102551.41
2023-05-19T11:37:28.706Z,102552.41
2023-05-19T11:39:56.350Z,102550.47
2023-05-19T11:42:24.622Z,102542.03
2023-05-19T11:44:56.982Z,102530.78
2023-05-19T11:47:25.185Z,102534.38
2023-05-19T11:49:52.966Z,102539.66
2023-05-19T11:52:23.419Z,102535.94
2023-05-19T11:54:51.756Z,102536.09
2023-05-19T11:57:19.527Z,102524.53
2023-05-19T11:59:49.655Z,102535.84
2023-05-19T12:02:27.699Z,102528.16
2023-05-19T12:04:55.873Z,102540.50
2023-05-19T12:07:25.028Z,102535.22
2023-05-19T12:09:53.606Z,102532.22
2023-05-19T12:12:22.214Z,102532.31
2023-05-19T12:14:53.623Z,102522.44
2023-05-19T12:17:23.898Z,102536.94
2023-05-19T12:19:52.065Z,102520.75
2023-05-19T12:22:20.814Z,102519.06
2023-05-19T12:24:48.914Z,102519.13
2023-05-19T12:27:21.702Z,102524.97
2023-05-19T12:29:54.000Z,102512.75
2023-05-19T12:32:29.262Z,102512.38
2023-05-19T12:34:57.711Z,102512.81
2023-05-19T12:37:29.920Z,102506.44
2023-05-19T12:39:58.475Z,102521.41
2023-05-19T12:42:31.334Z,102502.19
2023-05-19T12:45:04.600Z,102502.19
2023-05-19T12:47:36.724Z,102498.63
2023-05-19T12:50:09.343Z,102484.06
2023-05-19T12:52:51.248Z,102496.56
2023-05-19T12:55:20.571Z,102488.59
2023-05-19T12:57:54.584Z,102501.09
2023-05-19T13:00:25.687Z,102491.69
2023-05-19T13:03:02.909Z,102488.38
2023-05-19T13:05:33.652Z,102489.75
2023-05-19T13:08:12.228Z,102483.97
2023-05-19T13:10:41.184Z,102481.25
2023-05-19T13:13:09.826Z,102490.34
2023-05-19T13:15:45.145Z,102487.59
2023-05-19T13:18:13.951Z,102484.97
2023-05-19T13:20:43.220Z,102486.00
2023-05-19T13:23:12.484Z,102488.25
2023-05-19T13:25:41.450Z,102475.44
2023-05-19T13:28:09.584Z,102475.56
2023-05-19T13:30:39.561Z,102488.25
2023-05-19T13:33:07.530Z,102476.88
2023-05-19T13:35:37.594Z,102480.28
2023-05-19T13:38:09.857Z,102490.63
2023-05-19T13:40:38.267Z,102477.03
2023-05-19T13:43:06.228Z,102463.22
2023-05-19T13:45:33.883Z,102475.94
2023-05-19T13:48:01.549Z,102468.88
2023-05-19T13:50:29.190Z,102470.84
2023-05-19T13:52:56.808Z,102470.06
2023-05-19T13:55:26.208Z,102462.03
2023-05-19T13:57:54.283Z,102466.00
2023-05-19T14:00:22.271Z,102459.94
2023-05-19T14:02:49.945Z,102457.88
2023-05-19T14:05:17.534Z,102453.31
2023-05-19T14:07:45.131Z,102456.66
2023-05-19T14:10:12.881Z,102457.47
2023-05-19T14:12:55.196Z,102444.72
2023-05-19T14:15:28.347Z,102449.59
2023-05-19T14:17:56.481Z,102451.00
2023-05-19T14:20:24.122Z,102450.66
2023-05-19T14:22:51.658Z,102443.41
2023-05-19T14:25:19.225Z,102440.19
2023-05-19T14:27:46.903Z,102439.91
2023-05-19T14:30:14.639Z,102441.00
2023-05-19T14:32:42.227Z,102447.47
2023-05-19T14:35:10.144Z,102439.38
2023-05-19T14:37:37.701Z,102434.75
2023-05-19T14:40:05.870Z,102429.22
2023-05-19T14:42:33.418Z,102437.06
2023-05-19T14:45:00.988Z,102432.50
2023-05-19T14:47:28.621Z,102422.31
2023-05-19T14:49:56.236Z,102423.25
2023-05-19T14:52:23.858Z,102429.25
2023-05-19T14:54:51.454Z,102431.97
2023-05-19T14:57:19.032Z,102426.38
2023-05-19T14:59:46.566Z,102422.41
2023-05-19T15:02:14.123Z,102431.41
2023-05-19T15:04:41.687Z,102422.72
2023-05-19T15:07:10.714Z,102425.13
2023-05-19T15:09:38.755Z,102427.22
2023-05-19T15:12:06.494Z,102416.25
2023-05-19T15:14:34.104Z,102420.34
2023-05-19T15:17:01.739Z,102422.66
2023-05-19T15:19:29.369Z,102414.72
2023-05-19T15:21:56.923Z,102416.97
2023-05-19T15:24:24.453Z,102412.19
2023-05-19T15:26:52.365Z,102408.41
2023-05-19T15:29:20.045Z,102416.88
2023-05-19T15:31:50.518Z,102394.94
2023-05-19T15:34:18.645Z,102402.81
2023-05-19T15:36:46.233Z,102406.16
2023-05-19T15:39:14.270Z,102399.22
2023-05-19T15:41:41.814Z,102406.97
2023-05-19T15:44:09.459Z,102410.66
2023-05-19T15:46:37.119Z,102404.75
2023-05-19T15:49:05.032Z,102407.44
2023-05-19T15:51:32.692Z,102404.25
2023-05-19T15:54:00.349Z,102416.06
2023-05-19T15:56:27.940Z,102404.28
2023-05-19T15:58:55.464Z,102401.16
2023-05-19T16:01:23.388Z,102382.84
2023-05-19T16:03:51.174Z,102397.22
2023-05-19T16:06:18.877Z,102381.97
2023-05-19T16:08:46.444Z,102377.28
2023-05-19T16:11:14.475Z,102387.22
2023-05-19T16:13:42.017Z,102376.97
2023-05-19T16:16:09.597Z,102378.16
2023-05-19T16:18:37.156Z,102375.16
2023-05-19T16:21:04.884Z,102367.97
2023-05-19T16:23:32.463Z,102378.94
2023-05-19T16:25:59.991Z,102374.00
2023-05-19T16:28:27.940Z,102370.47
2023-05-19T16:30:59.818Z,102379.28
2023-05-19T16:33:28.615Z,102373.59
2023-05-19T16:35:56.125Z,102366.66
2023-05-19T16:38:23.858Z,102371.25
2023-05-19T16:40:51.442Z,102364.31
2023-05-19T16:43:19.029Z,102360.69
2023-05-19T16:45:46.613Z,102362.06
2023-05-19T16:48:14.205Z,102357.34
2023-05-19T16:50:41.821Z,102371.09
2023-05-19T16:53:09.492Z,102358.94
2023-05-19T16:55:37.053Z,102368.59
2023-05-19T16:58:04.700Z,102357.78
2023-05-19T17:00:32.520Z,102375.09
2023-05-19T17:03:00.373Z,102358.38
2023-05-19T17:05:28.249Z,102367.06
2023-05-19T17:07:55.869Z,102359.22
2023-05-19T17:10:23.422Z,102362.53
2023-05-19T17:12:50.952Z,102374.88
2023-05-19T17:15:19.165Z,102373.28
2023-05-19T17:17:46.712Z,102371.81
2023-05-19T17:20:14.476Z,102381.84
2023-05-19T17:22:42.088Z,102364.94
2023-05-19T17:25:10.364Z,102373.88
2023-05-19T17:27:37.853Z,102371.50
2023-05-19T17:30:05.748Z,102363.97
2023-05-19T17:32:38.265Z,102380.69
2023-05-19T17:35:07.512Z,102370.63
2023-05-19T17:37:35.126Z,102380.41
2023-05-19T17:40:02.660Z,102375.94
2023-05-19T17:42:31.692Z,102381.41
2023-05-19T17:44:59.366Z,102391.41
2023-05-19T17:47:26.907Z,102394.16
2023-05-19T17:49:54.492Z,102388.97
2023-05-19T17:52:22.422Z,102393.97
2023-05-19T17:54:50.559Z,102393.34
2023-05-19T17:57:19.228Z,102388.25
2023-05-19T17:59:47.123Z,102394.38
2023-05-19T18:02:15.212Z,102395.38
2023-05-19T18:04:43.748Z,102399.03
2023-05-19T18:07:12.014Z,102399.75
2023-05-19T18:09:44.676Z,102399.13
2023-05-19T18:12:12.555Z,102399.28
2023-05-19T18:14:40.244Z,102402.84
2023-05-19T18:17:07.842Z,102402.34
2023-05-19T18:19:35.382Z,102403.91
2023-05-19T18:22:02.912Z,102405.69
2023-05-19T18:24:30.433Z,102407.59
2023-05-19T18:26:58.114Z,102409.41
2023-05-19T18:29:25.680Z,102376.25
2023-05-19T18:31:53.336Z,102399.09
2023-05-19T18:34:20.892Z,102405.50
2023-05-19T18:36:48.452Z,102411.69
2023-05-19T18:39:16.106Z,102408.16
2023-05-19T18:41:43.736Z,102412.66
2023-05-19T18:44:12.473Z,102414.38
2023-05-19T18:46:40.387Z,102408.22
2023-05-19T18:49:09.681Z,102410.03
2023-05-19T18:51:38.576Z,102410.94
2023-05-19T18:54:06.145Z,102410.28
2023-05-19T18:56:34.385Z,102412.88
2023-05-19T18:59:02.003Z,102424.34
2023-05-19T19:01:29.632Z,102413.81
2023-05-19T19:03:57.191Z,102424.34
2023-05-19T19:06:24.914Z,102424.44
2023-05-19T19:08:52.525Z,102418.38
2023-05-19T19:11:20.215Z,102419.06
2023-05-19T19:13:51.023Z,102429.63
2023-05-19T19:16:18.638Z,102426.19
2023-05-19T19:18:46.308Z,102427.91
2023-05-19T19:21:13.926Z,102436.75
2023-05-19T19:23:41.464Z,102440.22
2023-05-19T19:26:09.462Z,102435.09
2023-05-19T19:28:37.078Z,102440.31
2023-05-19T19:31:04.621Z,102436.88
2023-05-19T19:33:32.217Z,102449.13
2023-05-19T19:35:59.770Z,102438.63
2023-05-19T19:38:27.307Z,102447.47
2023-05-19T19:40:54.939Z,102450.19
2023-05-19T19:43:22.496Z,102455.47
2023-05-19T19:45:50.135Z,102456.28
2023-05-19T19:48:17.672Z,102458.94
2023-05-19T19:50:45.178Z,102460.75
2023-05-19T19:53:12.685Z,102446.88
2023-05-19T19:55:40.273Z,102477.44
2023-05-19T19:58:08.217Z,102476.53
2023-05-19T20:00:35.912Z,102471.34
2023-05-19T20:03:05.860Z,102482.72
2023-05-19T20:05:33.822Z,102482.75
2023-05-19T20:08:01.383Z,102487.16
2023-05-19T20:10:28.966Z,102484.59
2023-05-19T20:12:58.762Z,102481.94
2023-05-19T20:15:26.739Z,102484.56
2023-05-19T20:17:54.309Z,102492.44
2023-05-19T20:20:21.912Z,102488.03
2023-05-19T20:22:49.561Z,102500.31
2023-05-19T20:25:17.221Z,102493.31
2023-05-19T20:27:44.762Z,102502.06
2023-05-19T20:30:12.496Z,102501.19
2023-05-19T20:32:40.056Z,102497.72
2023-05-19T20:35:08.606Z,102506.47
2023-05-19T20:37:36.131Z,102507.34
2023-05-19T20:40:03.727Z,102512.59
2023-05-19T20:42:31.462Z,102510.84
2023-05-19T20:44:59.055Z,102503.84
2023-05-19T20:47:28.703Z,102514.34
2023-05-19T20:49:58.772Z,102517.84
2023-05-19T20:52:26.956Z,102517.84
2023-05-19T20:54:54.625Z,102523.97
2023-05-19T20:57:22.209Z,102516.06
2023-05-19T20:59:49.755Z,102525.69
2023-05-19T21:02:17.276Z,102519.56
2023-05-19T21:04:45.940Z,102521.31
2023-05-19T21:07:13.660Z,102523.06
2023-05-19T21:09:42.684Z,102514.31
2023-05-19T21:12:10.583Z,102493.34
2023-05-19T21:14:38.079Z,102519.53
2023-05-19T21:17:07.118Z,102516.06
2023-05-19T21:19:37.410Z,102520.44
2023-05-19T21:22:05.140Z,102522.16
2023-05-19T21:24:32.699Z,102524.78
2023-05-19T21:27:00.175Z,102534.34
2023-05-19T21:29:27.778Z,102528.28
2023-05-19T21:31:56.260Z,102536.09
2023-05-19T21:34:24.380Z,102522.97
2023-05-19T21:36:51.932Z,102528.22
2023-05-19T21:39:19.482Z,102522.97
2023-05-19T21:41:47.017Z,102534.28
2023-05-19T21:44:14.574Z,102534.31
2023-05-19T21:46:42.162Z,102536.94
2023-05-19T21:49:09.755Z,102539.53
2023-05-19T21:51:37.259Z,102539.59
2023-05-19T21:54:04.854Z,102543.94
2023-05-19T21:56:32.338Z,102543.06
2023-05-19T21:58:59.879Z,102563.13
2023-05-19T22:01:27.768Z,102552.59
2023-05-19T22:03:55.535Z,102545.66
2023-05-19T22:06:23.267Z,102550.88
2023-05-19T22:08:50.830Z,102547.38
2023-05-19T22:11:18.882Z,102551.66
2023-05-19T22:13:46.617Z,102550.81
2023-05-19T22:16:14.158Z,102542.09
2023-05-19T22:18:41.834Z,102549.06
2023-05-19T22:21:09.371Z,102543.00
2023-05-19T22:23:36.938Z,102538.59
2023-05-19T22:26:04.533Z,102541.22
2023-05-19T22:28:32.084Z,102556.91
2023-05-19T22:30:59.684Z,102556.03
2023-05-19T22:33:27.295Z,102526.25
2023-05-19T22:35:54.890Z,102544.63
2023-05-19T22:38:22.404Z,102544.56
2023-05-19T22:40:50.020Z,102545.47
2023-05-19T22:43:17.600Z,102537.59
2023-05-19T22:45:45.335Z,102548.09
2023-05-19T22:48:12.901Z,102544.56
2023-05-19T22:50:40.420Z,102540.13
2023-05-19T22:53:07.958Z,102545.31
2023-05-19T22:55:36.092Z,102544.47
2023-05-19T22:58:03.897Z,102545.31
2023-05-19T23:00:31.492Z,102541.81
2023-05-19T23:02:59.417Z,102546.13
2023-05-19T23:05:27.030Z,102552.22
2023-05-19T23:07:54.723Z,102543.50
2023-05-19T23:10:22.313Z,102539.97
2023-05-19T23:12:50.090Z,102534.63
2023-05-19T23:15:17.656Z,102538.22
2023-05-19T23:17:45.227Z,102546.00
2023-05-19T23:20:13.662Z,102536.44
2023-05-19T23:22:41.230Z,102543.34
2023-05-19T23:25:08.894Z,102545.16
2023-05-19T23:27:37.189Z,102539.81
2023-05-19T23:30:05.125Z,102543.25
2023-05-19T23:32:33.314Z,102534.44
2023-05-19T23:35:14.242Z,102539.66
2023-05-19T23:37:41.795Z,102533.56
2023-05-19T23:40:09.933Z,102542.28
2023-05-19T23:42:38.049Z,102536.03
2023-05-19T23:45:06.723Z,102537.72
2023-05-19T23:47:34.369Z,102536.84
2023-05-19T23:50:01.917Z,102537.75
2023-05-19T23:52:29.600Z,102541.13
2023-05-19T23:54:57.146Z,102539.38
2023-05-19T23:57:24.678Z,102537.56
2023-05-19T23:59:52.515Z,102537.53
